sensor_id;sensor_type;location;lat;lon;timestamp;P1;durP1;ratioP1;P2;durP2;ratioP2
19965;SDS011;10144;50.874;4.762;2023-09-19T00:00:46;13.68;;;2.28;;
19965;SDS011;10144;50.874;4.762;2023-09-19T00:03:16;13.07;;;2.28;;
19965;SDS011;10144;50.874;4.762;2023-09-19T00:10:40;16.25;;;2.50;;
19965;SDS011;10144;50.874;4.762;2023-09-19T00:13:08;17.35;;;2.58;;
19965;SDS011;10144;50.874;4.762;2023-09-19T00:15:40;16.77;;;2.30;;
19965;SDS011;10144;50.874;4.762;2023-09-19T00:18:09;15.50;;;2.47;;
19965;SDS011;10144;50.874;4.762;2023-09-19T00:20:38;17.00;;;2.30;;
19965;SDS011;10144;50.874;4.762;2023-09-19T00:23:05;12.50;;;2.15;;
19965;SDS011;10144;50.874;4.762;2023-09-19T00:33:09;11.40;;;2.13;;
19965;SDS011;10144;50.874;4.762;2023-09-19T00:35:38;19.80;;;2.72;;
19965;SDS011;10144;50.874;4.762;2023-09-19T00:38:07;10.10;;;2.20;;
19965;SDS011;10144;50.874;4.762;2023-09-19T00:43:04;15.30;;;2.63;;
19965;SDS011;10144;50.874;4.762;2023-09-19T00:48:01;16.98;;;2.40;;
19965;SDS011;10144;50.874;4.762;2023-09-19T00:50:31;19.73;;;2.40;;
19965;SDS011;10144;50.874;4.762;2023-09-19T00:53:04;13.45;;;2.35;;
19965;SDS011;10144;50.874;4.762;2023-09-19T00:55:39;15.75;;;2.50;;
19965;SDS011;10144;50.874;4.762;2023-09-19T00:58:10;14.18;;;2.47;;
19965;SDS011;10144;50.874;4.762;2023-09-19T01:00:36;16.55;;;2.40;;
19965;SDS011;10144;50.874;4.762;2023-09-19T01:03:05;17.55;;;2.50;;
19965;SDS011;10144;50.874;4.762;2023-09-19T01:05:36;14.98;;;2.20;;
19965;SDS011;10144;50.874;4.762;2023-09-19T01:10:33;15.70;;;2.58;;
19965;SDS011;10144;50.874;4.762;2023-09-19T01:29:46;21.85;;;2.67;;
19965;SDS011;10144;50.874;4.762;2023-09-19T01:32:18;15.05;;;2.20;;
19965;SDS011;10144;50.874;4.762;2023-09-19T01:34:58;18.77;;;2.53;;
19965;SDS011;10144;50.874;4.762;2023-09-19T01:37:32;18.05;;;2.40;;
19965;SDS011;10144;50.874;4.762;2023-09-19T01:40:04;10.30;;;2.28;;
19965;SDS011;10144;50.874;4.762;2023-09-19T01:51:06;15.32;;;2.58;;
19965;SDS011;10144;50.874;4.762;2023-09-19T01:53:55;15.32;;;2.35;;
19965;SDS011;10144;50.874;4.762;2023-09-19T01:59:17;9.90;;;2.08;;
19965;SDS011;10144;50.874;4.762;2023-09-19T02:01:51;15.93;;;2.35;;
19965;SDS011;10144;50.874;4.762;2023-09-19T02:04:18;18.40;;;2.95;;
19965;SDS011;10144;50.874;4.762;2023-09-19T02:06:44;16.30;;;2.38;;
19965;SDS011;10144;50.874;4.762;2023-09-19T02:09:15;12.65;;;2.35;;
19965;SDS011;10144;50.874;4.762;2023-09-19T02:11:41;13.13;;;2.15;;
19965;SDS011;10144;50.874;4.762;2023-09-19T02:14:08;14.05;;;2.42;;
19965;SDS011;10144;50.874;4.762;2023-09-19T02:19:08;17.45;;;2.55;;
19965;SDS011;10144;50.874;4.762;2023-09-19T02:21:37;13.32;;;1.92;;
19965;SDS011;10144;50.874;4.762;2023-09-19T02:24:07;10.93;;;2.13;;
19965;SDS011;10144;50.874;4.762;2023-09-19T02:29:04;15.00;;;2.58;;
19965;SDS011;10144;50.874;4.762;2023-09-19T02:31:30;15.75;;;2.33;;
19965;SDS011;10144;50.874;4.762;2023-09-19T02:33:56;13.20;;;2.50;;
19965;SDS011;10144;50.874;4.762;2023-09-19T02:36:24;21.50;;;2.50;;
19965;SDS011;10144;50.874;4.762;2023-09-19T02:38:52;18.13;;;2.67;;
19965;SDS011;10144;50.874;4.762;2023-09-19T02:41:18;17.42;;;2.55;;
19965;SDS011;10144;50.874;4.762;2023-09-19T02:43:45;19.23;;;2.40;;
19965;SDS011;10144;50.874;4.762;2023-09-19T02:46:12;18.88;;;2.45;;
19965;SDS011;10144;50.874;4.762;2023-09-19T02:48:41;13.15;;;2.33;;
19965;SDS011;10144;50.874;4.762;2023-09-19T02:51:12;14.82;;;2.50;;
19965;SDS011;10144;50.874;4.762;2023-09-19T02:53:39;15.00;;;2.67;;
19965;SDS011;10144;50.874;4.762;2023-09-19T02:56:10;16.10;;;2.60;;
19965;SDS011;10144;50.874;4.762;2023-09-19T02:58:38;18.02;;;2.40;;
19965;SDS011;10144;50.874;4.762;2023-09-19T03:01:10;13.68;;;2.40;;
19965;SDS011;10144;50.874;4.762;2023-09-19T03:03:38;14.00;;;2.42;;
19965;SDS011;10144;50.874;4.762;2023-09-19T03:06:08;23.40;;;2.75;;
19965;SDS011;10144;50.874;4.762;2023-09-19T03:08:38;19.13;;;2.70;;
19965;SDS011;10144;50.874;4.762;2023-09-19T03:11:06;21.40;;;2.72;;
19965;SDS011;10144;50.874;4.762;2023-09-19T03:13:34;17.05;;;2.63;;
19965;SDS011;10144;50.874;4.762;2023-09-19T03:16:17;19.70;;;2.80;;
19965;SDS011;10144;50.874;4.762;2023-09-19T03:18:49;13.90;;;2.72;;
19965;SDS011;10144;50.874;4.762;2023-09-19T03:21:16;12.63;;;2.45;;
19965;SDS011;10144;50.874;4.762;2023-09-19T03:23:42;22.98;;;2.85;;
19965;SDS011;10144;50.874;4.762;2023-09-19T03:26:17;19.13;;;2.67;;
19965;SDS011;10144;50.874;4.762;2023-09-19T03:28:43;16.45;;;2.70;;
19965;SDS011;10144;50.874;4.762;2023-09-19T03:31:11;18.60;;;2.75;;
19965;SDS011;10144;50.874;4.762;2023-09-19T03:33:40;20.90;;;3.08;;
19965;SDS011;10144;50.874;4.762;2023-09-19T03:36:05;13.38;;;2.50;;
19965;SDS011;10144;50.874;4.762;2023-09-19T03:38:34;14.85;;;2.50;;
19965;SDS011;10144;50.874;4.762;2023-09-19T03:41:03;14.90;;;2.45;;
19965;SDS011;10144;50.874;4.762;2023-09-19T03:43:31;17.77;;;2.88;;
19965;SDS011;10144;50.874;4.762;2023-09-19T03:46:02;14.20;;;2.47;;
19965;SDS011;10144;50.874;4.762;2023-09-19T03:48:33;20.08;;;2.75;;
19965;SDS011;10144;50.874;4.762;2023-09-19T03:53:28;16.98;;;2.47;;
19965;SDS011;10144;50.874;4.762;2023-09-19T03:58:28;16.92;;;2.38;;
19965;SDS011;10144;50.874;4.762;2023-09-19T04:00:57;16.77;;;2.67;;
19965;SDS011;10144;50.874;4.762;2023-09-19T04:03:26;14.07;;;2.55;;
19965;SDS011;10144;50.874;4.762;2023-09-19T04:06:00;13.27;;;2.38;;
19965;SDS011;10144;50.874;4.762;2023-09-19T04:08:30;16.88;;;2.60;;
19965;SDS011;10144;50.874;4.762;2023-09-19T04:10:58;18.48;;;2.90;;
19965;SDS011;10144;50.874;4.762;2023-09-19T04:13:27;20.13;;;3.10;;
19965;SDS011;10144;50.874;4.762;2023-09-19T04:15:56;18.98;;;2.53;;
19965;SDS011;10144;50.874;4.762;2023-09-19T04:18:22;13.63;;;2.90;;
19965;SDS011;10144;50.874;4.762;2023-09-19T04:20:52;17.52;;;2.60;;
19965;SDS011;10144;50.874;4.762;2023-09-19T04:23:22;20.92;;;2.70;;
19965;SDS011;10144;50.874;4.762;2023-09-19T04:25:50;26.65;;;2.88;;
19965;SDS011;10144;50.874;4.762;2023-09-19T04:28:17;28.85;;;3.03;;
19965;SDS011;10144;50.874;4.762;2023-09-19T04:30:44;19.70;;;2.17;;
19965;SDS011;10144;50.874;4.762;2023-09-19T04:33:11;15.73;;;2.72;;
19965;SDS011;10144;50.874;4.762;2023-09-19T04:35:45;17.90;;;2.90;;
19965;SDS011;10144;50.874;4.762;2023-09-19T04:38:16;14.63;;;2.42;;
19965;SDS011;10144;50.874;4.762;2023-09-19T04:40:43;21.17;;;2.45;;
19965;SDS011;10144;50.874;4.762;2023-09-19T04:43:10;18.98;;;2.45;;
19965;SDS011;10144;50.874;4.762;2023-09-19T04:50:35;19.55;;;2.30;;
19965;SDS011;10144;50.874;4.762;2023-09-19T04:53:04;17.50;;;2.33;;
19965;SDS011;10144;50.874;4.762;2023-09-19T04:57:58;23.83;;;2.80;;
19965;SDS011;10144;50.874;4.762;2023-09-19T05:00:24;18.08;;;2.50;;
19965;SDS011;10144;50.874;4.762;2023-09-19T05:05:22;19.83;;;2.83;;
19965;SDS011;10144;50.874;4.762;2023-09-19T05:07:50;18.80;;;2.30;;
19965;SDS011;10144;50.874;4.762;2023-09-19T05:10:18;17.20;;;2.70;;
19965;SDS011;10144;50.874;4.762;2023-09-19T05:12:44;21.10;;;2.88;;
19965;SDS011;10144;50.874;4.762;2023-09-19T05:15:12;19.15;;;2.33;;
19965;SDS011;10144;50.874;4.762;2023-09-19T05:17:50;19.73;;;2.67;;
19965;SDS011;10144;50.874;4.762;2023-09-19T05:20:17;14.40;;;2.13;;
19965;SDS011;10144;50.874;4.762;2023-09-19T05:23:04;16.15;;;2.80;;
19965;SDS011;10144;50.874;4.762;2023-09-19T05:25:37;14.95;;;2.50;;
19965;SDS011;10144;50.874;4.762;2023-09-19T05:28:05;20.33;;;2.88;;
19965;SDS011;10144;50.874;4.762;2023-09-19T05:30:38;17.40;;;2.42;;
19965;SDS011;10144;50.874;4.762;2023-09-19T05:33:05;16.45;;;2.50;;
19965;SDS011;10144;50.874;4.762;2023-09-19T05:35:34;19.63;;;2.58;;
19965;SDS011;10144;50.874;4.762;2023-09-19T05:40:35;15.30;;;2.25;;
19965;SDS011;10144;50.874;4.762;2023-09-19T05:43:00;13.90;;;2.10;;
19965;SDS011;10144;50.874;4.762;2023-09-19T05:48:06;19.13;;;2.67;;
19965;SDS011;10144;50.874;4.762;2023-09-19T05:53:15;14.85;;;2.35;;
19965;SDS011;10144;50.874;4.762;2023-09-19T05:55:43;16.40;;;2.90;;
19965;SDS011;10144;50.874;4.762;2023-09-19T05:58:09;15.95;;;2.40;;
19965;SDS011;10144;50.874;4.762;2023-09-19T06:00:36;17.15;;;2.50;;
19965;SDS011;10144;50.874;4.762;2023-09-19T06:03:05;17.08;;;2.55;;
19965;SDS011;10144;50.874;4.762;2023-09-19T06:05:31;15.77;;;2.20;;
19965;SDS011;10144;50.874;4.762;2023-09-19T06:07:58;15.93;;;2.58;;
19965;SDS011;10144;50.874;4.762;2023-09-19T06:10:38;24.48;;;2.35;;
19965;SDS011;10144;50.874;4.762;2023-09-19T06:13:07;16.45;;;2.30;;
19965;SDS011;10144;50.874;4.762;2023-09-19T06:15:38;21.23;;;2.20;;
19965;SDS011;10144;50.874;4.762;2023-09-19T06:20:42;15.43;;;2.75;;
19965;SDS011;10144;50.874;4.762;2023-09-19T06:26:06;13.15;;;2.13;;
19965;SDS011;10144;50.874;4.762;2023-09-19T06:28:32;12.80;;;2.20;;
19965;SDS011;10144;50.874;4.762;2023-09-19T06:30:58;14.90;;;2.00;;
19965;SDS011;10144;50.874;4.762;2023-09-19T06:33:30;12.07;;;2.20;;
19965;SDS011;10144;50.874;4.762;2023-09-19T06:35:58;12.18;;;2.22;;
19965;SDS011;10144;50.874;4.762;2023-09-19T06:38:30;14.52;;;2.35;;
19965;SDS011;10144;50.874;4.762;2023-09-19T06:40:58;11.07;;;2.00;;
19965;SDS011;10144;50.874;4.762;2023-09-19T06:43:27;10.60;;;2.10;;
19965;SDS011;10144;50.874;4.762;2023-09-19T06:48:30;15.15;;;2.30;;
19965;SDS011;10144;50.874;4.762;2023-09-19T06:51:00;16.90;;;2.38;;
19965;SDS011;10144;50.874;4.762;2023-09-19T06:53:35;16.75;;;2.47;;
19965;SDS011;10144;50.874;4.762;2023-09-19T06:58:37;14.00;;;2.28;;
19965;SDS011;10144;50.874;4.762;2023-09-19T07:01:03;12.27;;;2.22;;
19965;SDS011;10144;50.874;4.762;2023-09-19T07:03:28;14.10;;;1.90;;
19965;SDS011;10144;50.874;4.762;2023-09-19T07:05:54;10.50;;;1.80;;
19965;SDS011;10144;50.874;4.762;2023-09-19T07:08:21;8.60;;;2.03;;
19965;SDS011;10144;50.874;4.762;2023-09-19T07:10:47;12.82;;;2.35;;
19965;SDS011;10144;50.874;4.762;2023-09-19T07:13:17;16.95;;;2.28;;
19965;SDS011;10144;50.874;4.762;2023-09-19T07:15:43;12.10;;;2.28;;
19965;SDS011;10144;50.874;4.762;2023-09-19T07:18:13;18.33;;;2.55;;
19965;SDS011;10144;50.874;4.762;2023-09-19T07:20:40;14.07;;;2.22;;
19965;SDS011;10144;50.874;4.762;2023-09-19T07:23:13;13.55;;;2.47;;
19965;SDS011;10144;50.874;4.762;2023-09-19T07:25:43;21.45;;;2.50;;
19965;SDS011;10144;50.874;4.762;2023-09-19T07:28:09;13.70;;;2.47;;
19965;SDS011;10144;50.874;4.762;2023-09-19T07:30:36;12.43;;;2.40;;
19965;SDS011;10144;50.874;4.762;2023-09-19T07:33:02;13.98;;;2.30;;
19965;SDS011;10144;50.874;4.762;2023-09-19T07:35:30;11.55;;;2.17;;
19965;SDS011;10144;50.874;4.762;2023-09-19T07:37:56;15.05;;;2.33;;
19965;SDS011;10144;50.874;4.762;2023-09-19T07:40:23;13.60;;;2.03;;
19965;SDS011;10144;50.874;4.762;2023-09-19T07:42:51;13.02;;;2.25;;
19965;SDS011;10144;50.874;4.762;2023-09-19T07:45:17;9.20;;;2.10;;
19965;SDS011;10144;50.874;4.762;2023-09-19T07:47:44;13.25;;;2.15;;
19965;SDS011;10144;50.874;4.762;2023-09-19T07:50:10;19.65;;;2.42;;
19965;SDS011;10144;50.874;4.762;2023-09-19T07:52:36;18.00;;;2.38;;
19965;SDS011;10144;50.874;4.762;2023-09-19T07:55:04;11.93;;;2.10;;
19965;SDS011;10144;50.874;4.762;2023-09-19T07:57:34;13.13;;;2.10;;
19965;SDS011;10144;50.874;4.762;2023-09-19T08:00:01;12.90;;;2.30;;
19965;SDS011;10144;50.874;4.762;2023-09-19T08:02:35;12.20;;;2.35;;
19965;SDS011;10144;50.874;4.762;2023-09-19T08:05:05;12.50;;;2.15;;
19965;SDS011;10144;50.874;4.762;2023-09-19T08:07:32;11.75;;;1.90;;
19965;SDS011;10144;50.874;4.762;2023-09-19T08:09:58;13.02;;;2.30;;
19965;SDS011;10144;50.874;4.762;2023-09-19T08:12:24;9.55;;;1.95;;
19965;SDS011;10144;50.874;4.762;2023-09-19T08:14:50;16.38;;;2.40;;
19965;SDS011;10144;50.874;4.762;2023-09-19T08:17:15;12.93;;;2.22;;
19965;SDS011;10144;50.874;4.762;2023-09-19T08:19:41;15.98;;;2.42;;
19965;SDS011;10144;50.874;4.762;2023-09-19T08:22:10;16.42;;;2.22;;
19965;SDS011;10144;50.874;4.762;2023-09-19T08:24:35;15.05;;;2.35;;
19965;SDS011;10144;50.874;4.762;2023-09-19T08:27:03;14.38;;;2.42;;
19965;SDS011;10144;50.874;4.762;2023-09-19T08:29:29;9.98;;;2.28;;
19965;SDS011;10144;50.874;4.762;2023-09-19T08:31:56;13.60;;;1.90;;
19965;SDS011;10144;50.874;4.762;2023-09-19T08:34:25;18.05;;;2.50;;
19965;SDS011;10144;50.874;4.762;2023-09-19T08:36:54;11.05;;;2.00;;
19965;SDS011;10144;50.874;4.762;2023-09-19T08:39:23;13.30;;;2.17;;
19965;SDS011;10144;50.874;4.762;2023-09-19T08:42:00;19.60;;;2.60;;
19965;SDS011;10144;50.874;4.762;2023-09-19T08:44:26;10.35;;;2.05;;
19965;SDS011;10144;50.874;4.762;2023-09-19T08:46:55;15.45;;;2.40;;
19965;SDS011;10144;50.874;4.762;2023-09-19T08:52:12;8.80;;;2.28;;
19965;SDS011;10144;50.874;4.762;2023-09-19T08:54:48;13.25;;;2.33;;
19965;SDS011;10144;50.874;4.762;2023-09-19T08:57:18;15.77;;;2.30;;
19965;SDS011;10144;50.874;4.762;2023-09-19T08:59:47;14.63;;;2.40;;
19965;SDS011;10144;50.874;4.762;2023-09-19T09:02:16;11.63;;;2.45;;
19965;SDS011;10144;50.874;4.762;2023-09-19T09:04:46;13.13;;;2.15;;
19965;SDS011;10144;50.874;4.762;2023-09-19T09:07:13;14.95;;;2.08;;
19965;SDS011;10144;50.874;4.762;2023-09-19T09:09:39;16.02;;;2.40;;
19965;SDS011;10144;50.874;4.762;2023-09-19T09:12:12;14.65;;;2.40;;
19965;SDS011;10144;50.874;4.762;2023-09-19T09:14:44;15.75;;;2.30;;
19965;SDS011;10144;50.874;4.762;2023-09-19T09:17:13;15.93;;;2.50;;
19965;SDS011;10144;50.874;4.762;2023-09-19T09:19:40;12.82;;;2.53;;
19965;SDS011;10144;50.874;4.762;2023-09-19T09:22:10;9.57;;;2.10;;
19965;SDS011;10144;50.874;4.762;2023-09-19T09:24:36;16.00;;;2.38;;
19965;SDS011;10144;50.874;4.762;2023-09-19T09:27:05;12.18;;;2.10;;
19965;SDS011;10144;50.874;4.762;2023-09-19T09:29:42;16.95;;;2.35;;
19965;SDS011;10144;50.874;4.762;2023-09-19T09:34:52;13.25;;;2.00;;
19965;SDS011;10144;50.874;4.762;2023-09-19T09:37:19;11.45;;;2.22;;
19965;SDS011;10144;50.874;4.762;2023-09-19T09:39:52;12.25;;;2.13;;
19965;SDS011;10144;50.874;4.762;2023-09-19T09:42:44;7.85;;;1.85;;
19965;SDS011;10144;50.874;4.762;2023-09-19T09:45:23;11.55;;;1.90;;
19965;SDS011;10144;50.874;4.762;2023-09-19T09:48:15;15.00;;;2.13;;
19965;SDS011;10144;50.874;4.762;2023-09-19T09:50:56;8.65;;;2.10;;
19965;SDS011;10144;50.874;4.762;2023-09-19T09:53:27;8.52;;;1.77;;
19965;SDS011;10144;50.874;4.762;2023-09-19T09:56:03;16.30;;;2.28;;
19965;SDS011;10144;50.874;4.762;2023-09-19T09:58:35;9.07;;;1.55;;
19965;SDS011;10144;50.874;4.762;2023-09-19T10:01:02;8.27;;;1.77;;
19965;SDS011;10144;50.874;4.762;2023-09-19T10:06:09;9.88;;;1.95;;
19965;SDS011;10144;50.874;4.762;2023-09-19T10:09:08;14.10;;;1.85;;
19965;SDS011;10144;50.874;4.762;2023-09-19T10:11:49;10.25;;;2.00;;
19965;SDS011;10144;50.874;4.762;2023-09-19T10:14:30;10.35;;;2.25;;
19965;SDS011;10144;50.874;4.762;2023-09-19T10:16:59;11.57;;;1.60;;
19965;SDS011;10144;50.874;4.762;2023-09-19T10:19:30;8.05;;;1.70;;
19965;SDS011;10144;50.874;4.762;2023-09-19T10:22:02;6.72;;;1.40;;
19965;SDS011;10144;50.874;4.762;2023-09-19T10:24:29;9.57;;;1.90;;
19965;SDS011;10144;50.874;4.762;2023-09-19T10:26:56;7.28;;;1.42;;
19965;SDS011;10144;50.874;4.762;2023-09-19T10:29:22;7.47;;;1.75;;
19965;SDS011;10144;50.874;4.762;2023-09-19T10:31:53;9.93;;;1.83;;
19965;SDS011;10144;50.874;4.762;2023-09-19T10:34:23;10.20;;;1.75;;
19965;SDS011;10144;50.874;4.762;2023-09-19T10:36:51;11.25;;;1.65;;
19965;SDS011;10144;50.874;4.762;2023-09-19T10:39:19;9.18;;;1.80;;
19965;SDS011;10144;50.874;4.762;2023-09-19T10:41:50;5.22;;;1.52;;
19965;SDS011;10144;50.874;4.762;2023-09-19T10:44:20;7.97;;;1.42;;
19965;SDS011;10144;50.874;4.762;2023-09-19T10:46:53;8.70;;;1.85;;
19965;SDS011;10144;50.874;4.762;2023-09-19T10:49:20;7.32;;;1.50;;
19965;SDS011;10144;50.874;4.762;2023-09-19T10:51:46;10.90;;;1.73;;
19965;SDS011;10144;50.874;4.762;2023-09-19T10:54:18;11.40;;;1.77;;
19965;SDS011;10144;50.874;4.762;2023-09-19T10:56:51;8.85;;;1.70;;
19965;SDS011;10144;50.874;4.762;2023-09-19T10:59:19;5.60;;;1.20;;
19965;SDS011;10144;50.874;4.762;2023-09-19T11:01:50;9.98;;;1.58;;
19965;SDS011;10144;50.874;4.762;2023-09-19T11:14:57;7.97;;;1.25;;
19965;SDS011;10144;50.874;4.762;2023-09-19T11:17:30;10.98;;;1.70;;
19965;SDS011;10144;50.874;4.762;2023-09-19T11:30:31;5.20;;;1.13;;
19965;SDS011;10144;50.874;4.762;2023-09-19T11:33:17;5.32;;;1.30;;
19965;SDS011;10144;50.874;4.762;2023-09-19T11:36:19;6.95;;;1.52;;
19965;SDS011;10144;50.874;4.762;2023-09-19T11:39:01;8.32;;;1.45;;
19965;SDS011;10144;50.874;4.762;2023-09-19T11:41:39;7.50;;;1.17;;
19965;SDS011;10144;50.874;4.762;2023-09-19T11:46:32;9.25;;;1.17;;
19965;SDS011;10144;50.874;4.762;2023-09-19T11:49:08;8.35;;;1.20;;
19965;SDS011;10144;50.874;4.762;2023-09-19T11:51:45;7.18;;;1.40;;
19965;SDS011;10144;50.874;4.762;2023-09-19T11:54:12;7.93;;;1.10;;
19965;SDS011;10144;50.874;4.762;2023-09-19T11:56:48;7.05;;;1.30;;
19965;SDS011;10144;50.874;4.762;2023-09-19T11:59:19;8.02;;;1.23;;
19965;SDS011;10144;50.874;4.762;2023-09-19T12:01:56;7.95;;;1.35;;
19965;SDS011;10144;50.874;4.762;2023-09-19T12:07:14;7.53;;;1.33;;
19965;SDS011;10144;50.874;4.762;2023-09-19T12:10:02;4.55;;;0.90;;
19965;SDS011;10144;50.874;4.762;2023-09-19T12:12:29;2.65;;;0.90;;
19965;SDS011;10144;50.874;4.762;2023-09-19T12:14:56;5.53;;;1.00;;
19965;SDS011;10144;50.874;4.762;2023-09-19T12:17:38;7.95;;;1.48;;
19965;SDS011;10144;50.874;4.762;2023-09-19T12:20:06;6.55;;;1.10;;
19965;SDS011;10144;50.874;4.762;2023-09-19T12:22:42;9.93;;;1.17;;
19965;SDS011;10144;50.874;4.762;2023-09-19T12:27:42;8.85;;;1.52;;
19965;SDS011;10144;50.874;4.762;2023-09-19T12:30:09;6.07;;;1.10;;
19965;SDS011;10144;50.874;4.762;2023-09-19T12:32:39;9.27;;;1.00;;
19965;SDS011;10144;50.874;4.762;2023-09-19T12:35:09;4.53;;;0.98;;
19965;SDS011;10144;50.874;4.762;2023-09-19T12:37:43;4.60;;;1.25;;
19965;SDS011;10144;50.874;4.762;2023-09-19T12:40:17;6.35;;;1.00;;
19965;SDS011;10144;50.874;4.762;2023-09-19T12:42:56;7.32;;;1.08;;
19965;SDS011;10144;50.874;4.762;2023-09-19T12:45:27;8.02;;;1.33;;
19965;SDS011;10144;50.874;4.762;2023-09-19T12:53:34;7.57;;;1.30;;
19965;SDS011;10144;50.874;4.762;2023-09-19T12:56:05;7.65;;;1.20;;
19965;SDS011;10144;50.874;4.762;2023-09-19T12:58:33;7.45;;;1.00;;
19965;SDS011;10144;50.874;4.762;2023-09-19T13:01:00;6.07;;;0.95;;
19965;SDS011;10144;50.874;4.762;2023-09-19T13:03:26;6.13;;;1.10;;
19965;SDS011;10144;50.874;4.762;2023-09-19T13:08:29;6.00;;;1.10;;
19965;SDS011;10144;50.874;4.762;2023-09-19T13:19:45;7.68;;;1.15;;
19965;SDS011;10144;50.874;4.762;2023-09-19T13:25:20;8.32;;;1.10;;
19965;SDS011;10144;50.874;4.762;2023-09-19T13:27:48;7.47;;;1.00;;
19965;SDS011;10144;50.874;4.762;2023-09-19T13:30:19;9.35;;;1.20;;
19965;SDS011;10144;50.874;4.762;2023-09-19T13:32:45;6.97;;;1.10;;
19965;SDS011;10144;50.874;4.762;2023-09-19T13:35:12;8.95;;;1.38;;
19965;SDS011;10144;50.874;4.762;2023-09-19T13:37:38;8.25;;;1.13;;
19965;SDS011;10144;50.874;4.762;2023-09-19T13:40:11;5.82;;;0.98;;
19965;SDS011;10144;50.874;4.762;2023-09-19T13:42:37;7.22;;;1.42;;
19965;SDS011;10144;50.874;4.762;2023-09-19T13:45:03;4.95;;;1.10;;
19965;SDS011;10144;50.874;4.762;2023-09-19T13:47:30;6.28;;;1.05;;
19965;SDS011;10144;50.874;4.762;2023-09-19T13:49:57;6.60;;;1.27;;
19965;SDS011;10144;50.874;4.762;2023-09-19T13:52:23;4.00;;;1.20;;
19965;SDS011;10144;50.874;4.762;2023-09-19T13:54:50;12.95;;;1.77;;
19965;SDS011;10144;50.874;4.762;2023-09-19T13:57:16;6.75;;;1.20;;
19965;SDS011;10144;50.874;4.762;2023-09-19T13:59:42;6.00;;;0.93;;
19965;SDS011;10144;50.874;4.762;2023-09-19T14:02:08;8.57;;;1.40;;
19965;SDS011;10144;50.874;4.762;2023-09-19T14:04:33;5.90;;;1.23;;
19965;SDS011;10144;50.874;4.762;2023-09-19T14:07:02;5.00;;;1.17;;
19965;SDS011;10144;50.874;4.762;2023-09-19T14:09:28;2.95;;;1.00;;
19965;SDS011;10144;50.874;4.762;2023-09-19T14:11:54;4.85;;;1.30;;
19965;SDS011;10144;50.874;4.762;2023-09-19T14:14:19;7.50;;;1.15;;
19965;SDS011;10144;50.874;4.762;2023-09-19T14:16:46;7.95;;;1.33;;
19965;SDS011;10144;50.874;4.762;2023-09-19T14:19:14;8.13;;;1.23;;
19965;SDS011;10144;50.874;4.762;2023-09-19T14:21:41;6.03;;;1.20;;
19965;SDS011;10144;50.874;4.762;2023-09-19T14:24:07;5.82;;;1.10;;
19965;SDS011;10144;50.874;4.762;2023-09-19T14:26:37;7.40;;;1.10;;
19965;SDS011;10144;50.874;4.762;2023-09-19T14:29:04;6.63;;;1.20;;
19965;SDS011;10144;50.874;4.762;2023-09-19T14:31:32;11.20;;;1.30;;
19965;SDS011;10144;50.874;4.762;2023-09-19T14:33:58;9.45;;;1.60;;
19965;SDS011;10144;50.874;4.762;2023-09-19T14:36:24;7.25;;;1.10;;
19965;SDS011;10144;50.874;4.762;2023-09-19T14:38:54;4.13;;;0.95;;
19965;SDS011;10144;50.874;4.762;2023-09-19T14:41:21;4.70;;;1.42;;
19965;SDS011;10144;50.874;4.762;2023-09-19T14:43:50;6.53;;;1.20;;
19965;SDS011;10144;50.874;4.762;2023-09-19T14:46:16;4.47;;;1.08;;
19965;SDS011;10144;50.874;4.762;2023-09-19T14:48:43;8.52;;;1.42;;
19965;SDS011;10144;50.874;4.762;2023-09-19T14:51:12;7.80;;;1.33;;
19965;SDS011;10144;50.874;4.762;2023-09-19T14:53:38;8.52;;;1.20;;
19965;SDS011;10144;50.874;4.762;2023-09-19T14:56:05;3.70;;;1.02;;
19965;SDS011;10144;50.874;4.762;2023-09-19T14:58:32;9.48;;;1.30;;
19965;SDS011;10144;50.874;4.762;2023-09-19T15:01:08;4.60;;;1.30;;
19965;SDS011;10144;50.874;4.762;2023-09-19T15:03:35;5.78;;;1.20;;
19965;SDS011;10144;50.874;4.762;2023-09-19T15:06:04;9.50;;;1.15;;
19965;SDS011;10144;50.874;4.762;2023-09-19T15:08:35;4.35;;;1.30;;
19965;SDS011;10144;50.874;4.762;2023-09-19T15:11:03;7.07;;;1.40;;
19965;SDS011;10144;50.874;4.762;2023-09-19T15:13:33;3.83;;;1.10;;
19965;SDS011;10144;50.874;4.762;2023-09-19T15:16:03;6.20;;;1.27;;
19965;SDS011;10144;50.874;4.762;2023-09-19T15:18:39;9.00;;;1.70;;
19965;SDS011;10144;50.874;4.762;2023-09-19T15:21:07;6.00;;;1.15;;
19965;SDS011;10144;50.874;4.762;2023-09-19T15:23:34;5.68;;;1.80;;
19965;SDS011;10144;50.874;4.762;2023-09-19T15:26:01;7.97;;;1.40;;
19965;SDS011;10144;50.874;4.762;2023-09-19T15:28:31;9.30;;;1.73;;
19965;SDS011;10144;50.874;4.762;2023-09-19T15:31:02;9.00;;;1.60;;
19965;SDS011;10144;50.874;4.762;2023-09-19T15:33:27;9.60;;;1.48;;
19965;SDS011;10144;50.874;4.762;2023-09-19T15:36:04;5.65;;;1.58;;
19965;SDS011;10144;50.874;4.762;2023-09-19T15:41:25;6.07;;;1.42;;
19965;SDS011;10144;50.874;4.762;2023-09-19T15:43:52;6.70;;;1.60;;
19965;SDS011;10144;50.874;4.762;2023-09-19T15:46:18;8.05;;;1.45;;
19965;SDS011;10144;50.874;4.762;2023-09-19T15:48:44;5.63;;;1.40;;
19965;SDS011;10144;50.874;4.762;2023-09-19T15:51:12;6.00;;;1.27;;
19965;SDS011;10144;50.874;4.762;2023-09-19T15:53:46;6.47;;;1.40;;
19965;SDS011;10144;50.874;4.762;2023-09-19T15:56:13;7.57;;;1.25;;
19965;SDS011;10144;50.874;4.762;2023-09-19T15:58:42;4.35;;;1.48;;
19965;SDS011;10144;50.874;4.762;2023-09-19T16:01:09;9.23;;;1.40;;
19965;SDS011;10144;50.874;4.762;2023-09-19T16:03:35;6.30;;;1.52;;
19965;SDS011;10144;50.874;4.762;2023-09-19T16:06:02;9.18;;;1.20;;
19965;SDS011;10144;50.874;4.762;2023-09-19T16:08:43;5.88;;;1.65;;
19965;SDS011;10144;50.874;4.762;2023-09-19T16:11:10;5.88;;;1.45;;
19965;SDS011;10144;50.874;4.762;2023-09-19T16:13:36;6.82;;;1.40;;
19965;SDS011;10144;50.874;4.762;2023-09-19T16:16:02;4.95;;;1.20;;
19965;SDS011;10144;50.874;4.762;2023-09-19T16:18:29;5.82;;;1.40;;
19965;SDS011;10144;50.874;4.762;2023-09-19T16:21:01;5.95;;;1.50;;
19965;SDS011;10144;50.874;4.762;2023-09-19T16:23:28;6.75;;;1.48;;
19965;SDS011;10144;50.874;4.762;2023-09-19T16:26:07;7.50;;;1.50;;
19965;SDS011;10144;50.874;4.762;2023-09-19T16:28:40;23.17;;;1.92;;
